Guapiles, Costa Rica
Current Conditions -  °F | °C
As of 8:00 AM on Wednesday 22 Oct 2014 (Local Time) from MRPV Reporting Station
Broken Clouds Broken Clouds  
Wind Chill: 72°   Ceiling: 25000
Heat Index: 72°   Visibility: 6mi
Dew Point: 64°   Wind: 1mph
Humidity: 78%   Direction: 130°SE
Pressure: 30.07"   Gusts: NA
Location:  10.21°N, 83.79°W
Report Text: MRPV 221400Z 13001KT 9999 SCT015 BKN250 22/18 A3007 NOSIG
Loading
Personal Weather Stations






























Interactive Weather Map
Tropical Storm Tracking
New forecast layout! Learn more

10-Day Weather Forecast

Advertisements
Track Severe Weather on mobile